Time;durP1;ratioP1;P1;durP2;ratioP2;P2;SDS_P1;SDS_P2;PMS_P1;PMS_P2;Temp;Humidity;BMP_temperature;BMP_pressure;BME280_temperature;BME280_humidity;BME280_pressure;Samples;Min_cycle;Max_cycle;Signal;HPM_P1;HPM_P2
2021/03/14 00:00:40;;;;;;;1999.90;999.90;;;20.80;97.10;;;;;;5095410;28;20176;-45
2021/03/14 00:03:09;;;;;;;1999.90;999.90;;;20.80;97.30;;;;;;5095335;28;20157;-43
2021/03/14 00:05:37;;;;;;;1999.90;999.90;;;20.90;97.60;;;;;;5095252;28;20172;-59
2021/03/14 00:08:06;;;;;;;1999.90;999.90;;;20.80;97.80;;;;;;5095276;28;20174;-43
2021/03/14 00:10:33;;;;;;;1999.90;999.90;;;20.80;97.90;;;;;;5095128;28;20621;-43
2021/03/14 00:13:01;;;;;;;1999.90;999.90;;;20.80;98.20;;;;;;5095212;28;20196;-43
2021/03/14 00:15:28;;;;;;;1999.90;999.90;;;20.80;98.50;;;;;;5095188;28;20168;-44
2021/03/14 00:17:55;;;;;;;1999.90;999.90;;;20.80;98.60;;;;;;5095098;28;20607;-43
2021/03/14 00:20:22;;;;;;;1999.90;999.90;;;20.80;98.90;;;;;;5095042;28;20211;-49
2021/03/14 00:22:49;;;;;;;1999.90;999.90;;;20.70;98.70;;;;;;5094697;28;20807;-42
2021/03/14 00:25:17;;;;;;;1999.90;999.90;;;20.80;98.80;;;;;;5094943;28;20669;-43
2021/03/14 00:27:44;;;;;;;1999.90;999.90;;;20.80;98.60;;;;;;5094809;28;20242;-45
2021/03/14 00:30:14;;;;;;;1999.90;999.90;;;20.80;98.30;;;;;;5094806;28;20209;-44
2021/03/14 00:32:42;;;;;;;1999.90;999.90;;;20.90;98.30;;;;;;5094877;28;20279;-43
2021/03/14 00:35:12;;;;;;;1999.90;999.90;;;20.80;98.40;;;;;;5094787;28;20168;-43
2021/03/14 00:37:40;;;;;;;1999.90;999.90;;;20.80;98.40;;;;;;5094711;28;20205;-43
2021/03/14 00:40:08;;;;;;;1999.90;999.90;;;20.80;98.40;;;;;;5094631;28;20171;-44
2021/03/14 00:42:36;;;;;;;1999.90;999.90;;;20.80;98.50;;;;;;5094667;28;20600;-43
2021/03/14 00:45:05;;;;;;;1999.90;999.90;;;20.80;98.60;;;;;;5094549;28;20180;-56
2021/03/14 00:47:32;;;;;;;1999.90;999.90;;;20.80;98.70;;;;;;5094580;28;20230;-43
2021/03/14 00:49:59;;;;;;;1999.90;999.90;;;20.70;98.80;;;;;;5094373;28;20172;-47
2021/03/14 00:52:26;;;;;;;1999.90;999.90;;;20.80;98.70;;;;;;5094312;28;20249;-51
2021/03/14 00:54:53;;;;;;;1999.90;999.90;;;20.80;98.50;;;;;;5094396;28;20187;-59
2021/03/14 00:57:19;;;;;;;1999.90;999.90;;;20.90;98.30;;;;;;5094268;28;20255;-43
2021/03/14 00:59:46;;;;;;;1999.90;999.90;;;21.00;98.20;;;;;;5094251;28;20164;-43
2021/03/14 01:02:13;;;;;;;1999.90;999.90;;;21.00;98.20;;;;;;5094076;28;20172;-44
2021/03/14 01:04:40;;;;;;;1999.90;999.90;;;21.00;98.30;;;;;;5094159;28;20199;-43
2021/03/14 01:07:06;;;;;;;1999.90;999.90;;;20.90;98.30;;;;;;5094099;28;20182;-44
2021/03/14 01:09:33;;;;;;;1999.90;999.90;;;20.90;98.30;;;;;;5094499;28;20171;-43
2021/03/14 01:12:00;;;;;;;1999.90;999.90;;;20.80;98.30;;;;;;5094001;28;20293;-57
2021/03/14 01:14:27;;;;;;;1999.90;999.90;;;20.80;98.30;;;;;;5093951;28;20190;-43
2021/03/14 01:16:53;;;;;;;1999.90;999.90;;;20.70;98.80;;;;;;5093955;28;20168;-44
2021/03/14 01:19:20;;;;;;;1999.90;999.90;;;20.70;98.40;;;;;;5093898;28;20190;-45
2021/03/14 01:21:47;;;;;;;1999.90;999.90;;;20.70;98.60;;;;;;5093661;28;20179;-44
2021/03/14 01:24:14;;;;;;;1999.90;999.90;;;20.70;98.40;;;;;;5093804;28;20167;-43
2021/03/14 01:26:41;;;;;;;1999.90;999.90;;;20.70;98.40;;;;;;5093728;28;20285;-45
2021/03/14 01:29:08;;;;;;;1999.90;999.90;;;20.70;98.30;;;;;;5093722;28;20160;-43
2021/03/14 01:31:34;;;;;;;1999.90;999.90;;;20.70;98.50;;;;;;5093867;28;20656;-43
2021/03/14 01:34:01;;;;;;;1999.90;999.90;;;20.60;98.50;;;;;;5093551;28;20260;-43
2021/03/14 01:36:28;;;;;;;1999.90;999.90;;;20.60;98.60;;;;;;5093642;28;20163;-59
2021/03/14 01:38:55;;;;;;;1999.90;999.90;;;20.70;98.70;;;;;;5093574;28;20171;-43
2021/03/14 01:41:22;;;;;;;1999.90;999.90;;;20.60;98.70;;;;;;5093555;28;20618;-58
2021/03/14 01:43:48;;;;;;;1999.90;999.90;;;20.60;98.90;;;;;;5093064;28;20198;-55
2021/03/14 01:46:15;;;;;;;1999.90;999.90;;;20.50;98.60;;;;;;5093448;28;20160;-56
2021/03/14 01:48:42;;;;;;;1999.90;999.90;;;20.70;98.70;;;;;;5093427;28;20163;-43
2021/03/14 01:51:10;;;;;;;1999.90;999.90;;;20.50;98.80;;;;;;5093441;28;20258;-44
2021/03/14 01:53:37;;;;;;;1999.90;999.90;;;20.50;98.80;;;;;;5093349;28;20199;-43
2021/03/14 01:56:04;;;;;;;1999.90;999.90;;;20.60;98.80;;;;;;5093274;28;20250;-43
2021/03/14 01:58:33;;;;;;;1999.90;999.90;;;20.70;98.60;;;;;;5093277;28;20163;-48
2021/03/14 02:01:00;;;;;;;1999.90;999.90;;;20.50;98.50;;;;;;5093195;28;20168;-56
2021/03/14 02:03:27;;;;;;;1999.90;999.90;;;20.40;98.90;;;;;;5093226;28;20168;-58
2021/03/14 02:05:54;;;;;;;1999.90;999.90;;;20.30;99.40;;;;;;5093178;28;20168;-43
2021/03/14 02:08:21;;;;;;;1999.90;999.90;;;20.20;99.50;;;;;;5093142;28;20168;-43
2021/03/14 02:10:51;;;;;;;1999.90;999.90;;;20.20;99.80;;;;;;5093146;28;20167;-45
2021/03/14 02:13:38;;;;;;;1999.90;999.90;;;20.20;99.90;;;;;;5092945;28;20658;-49
2021/03/14 02:16:07;;;;;;;1999.90;999.90;;;20.30;99.80;;;;;;5093099;28;20159;-56
2021/03/14 02:18:38;;;;;;;1999.90;999.90;;;20.20;99.90;;;;;;5093064;28;20164;-43
2021/03/14 02:21:06;;;;;;;1999.90;999.90;;;20.20;99.90;;;;;;5092978;28;20163;-44
2021/03/14 02:23:58;;;;;;;1999.90;999.90;;;20.20;99.90;;;;;;5092662;28;20282;-43
2021/03/14 02:26:47;;;;;;;1999.90;999.90;;;20.20;99.90;;;;;;5087451;28;20202;-45
2021/03/14 02:29:17;;;;;;;1999.90;999.90;;;20.20;99.90;;;;;;5093118;28;20522;-43
2021/03/14 02:31:47;;;;;;;1999.90;999.90;;;20.10;99.90;;;;;;5092853;28;20550;-43
2021/03/14 02:34:21;;;;;;;1999.90;999.90;;;20.00;99.90;;;;;;5092852;28;20195;-43
2021/03/14 02:36:49;;;;;;;1999.90;999.90;;;20.00;99.90;;;;;;5092927;28;20156;-51
2021/03/14 02:39:20;;;;;;;1999.90;999.90;;;20.00;99.90;;;;;;5092864;28;20179;-43
2021/03/14 02:41:49;;;;;;;1999.90;999.90;;;20.00;99.90;;;;;;5092755;28;20160;-45
2021/03/14 02:44:17;;;;;;;1999.90;999.90;;;19.90;99.90;;;;;;5092759;28;20176;-43
2021/03/14 02:46:45;;;;;;;1999.90;999.90;;;19.80;99.90;;;;;;5092980;28;20169;-43
2021/03/14 02:49:14;;;;;;;1999.90;999.90;;;19.80;99.90;;;;;;5092904;28;20213;-43
2021/03/14 02:51:41;;;;;;;1999.90;999.90;;;19.90;99.90;;;;;;5092903;28;20260;-44
2021/03/14 02:54:10;;;;;;;1999.90;999.90;;;19.90;99.90;;;;;;5092666;28;20199;-59
2021/03/14 02:56:37;;;;;;;1999.90;999.90;;;19.90;99.90;;;;;;5096701;28;20677;-43
2021/03/14 02:59:05;;;;;;;1999.90;999.90;;;19.90;99.90;;;;;;5096602;28;20167;-43
2021/03/14 03:01:33;;;;;;;1999.90;999.90;;;20.00;99.90;;;;;;5096553;28;20172;-45
2021/03/14 03:04:01;;;;;;;1999.90;999.90;;;20.00;99.90;;;;;;5096539;28;20160;-43
2021/03/14 03:06:30;;;;;;;1999.90;999.90;;;20.10;99.20;;;;;;5096387;28;20262;-43
2021/03/14 03:08:57;;;;;;;1999.90;999.90;;;20.00;97.30;;;;;;5096461;28;20164;-43
2021/03/14 03:11:25;;;;;;;1999.90;999.90;;;20.00;97.40;;;;;;5096281;28;20179;-43
2021/03/14 03:13:53;;;;;;;1999.90;999.90;;;20.00;97.50;;;;;;5096252;28;20196;-43
2021/03/14 03:16:24;;;;;;;1999.90;999.90;;;19.90;98.10;;;;;;5096214;28;20298;-43
2021/03/14 03:18:52;;;;;;;1999.90;999.90;;;19.90;98.10;;;;;;5096262;28;20152;-43
2021/03/14 03:21:23;;;;;;;1999.90;999.90;;;19.90;98.70;;;;;;5096199;28;20172;-43
2021/03/14 03:23:50;;;;;;;1999.90;999.90;;;19.80;98.80;;;;;;5095977;28;20215;-43
2021/03/14 03:26:18;;;;;;;1999.90;999.90;;;19.70;99.30;;;;;;5096175;28;20535;-43
2021/03/14 03:28:48;;;;;;;1999.90;999.90;;;19.60;99.90;;;;;;5096125;28;20565;-43
2021/03/14 03:31:15;;;;;;;1999.90;999.90;;;19.60;99.90;;;;;;5096145;28;20221;-43
2021/03/14 03:33:41;;;;;;;1999.90;999.90;;;19.60;99.90;;;;;;5095856;28;20203;-44
2021/03/14 03:36:08;;;;;;;1999.90;999.90;;;19.50;99.90;;;;;;5095888;28;20172;-43
2021/03/14 03:38:36;;;;;;;1999.90;999.90;;;19.50;99.90;;;;;;5095870;28;20171;-43
2021/03/14 03:41:03;;;;;;;1999.90;999.90;;;19.40;99.90;;;;;;5095845;28;20202;-44
2021/03/14 03:43:36;;;;;;;1999.90;999.90;;;19.40;99.90;;;;;;5095756;28;20180;-43
2021/03/14 03:46:06;;;;;;;1999.90;999.90;;;19.30;99.80;;;;;;5095680;28;20225;-43
2021/03/14 03:48:47;;;;;;;1999.90;999.90;;;19.20;99.90;;;;;;5095641;28;20172;-43
2021/03/14 03:51:29;;;;;;;1999.90;999.90;;;19.20;99.90;;;;;;5095750;28;20609;-43
2021/03/14 03:53:58;;;;;;;1999.90;999.90;;;19.20;99.90;;;;;;5095502;28;20266;-43
2021/03/14 03:56:27;;;;;;;1999.90;999.90;;;19.20;99.90;;;;;;5095533;28;20243;-59
2021/03/14 03:58:54;;;;;;;1999.90;999.90;;;19.10;99.90;;;;;;5095415;28;20189;-57
2021/03/14 04:01:22;;;;;;;1999.90;999.90;;;19.10;99.90;;;;;;5095362;28;20168;-43
2021/03/14 04:03:51;;;;;;;1999.90;999.90;;;19.10;99.90;;;;;;5095491;28;20203;-45
2021/03/14 04:06:19;;;;;;;1999.90;999.90;;;19.10;99.90;;;;;;5095133;28;20168;-44
2021/03/14 04:08:48;;;;;;;1999.90;999.90;;;19.10;99.90;;;;;;5095446;28;20164;-43
2021/03/14 04:11:17;;;;;;;1999.90;999.90;;;19.10;99.90;;;;;;5095191;28;20277;-43
2021/03/14 04:13:46;;;;;;;1999.90;999.90;;;19.20;99.90;;;;;;5095112;28;20203;-44
2021/03/14 04:16:15;;;;;;;1999.90;999.90;;;19.30;99.90;;;;;;5095125;28;20175;-44
2021/03/14 04:18:45;;;;;;;1999.90;999.90;;;19.40;99.80;;;;;;5095061;28;20525;-46
2021/03/14 04:21:15;;;;;;;1999.90;999.90;;;19.40;99.70;;;;;;5094990;28;20710;-44
2021/03/14 04:23:44;;;;;;;1999.90;999.90;;;19.50;99.90;;;;;;5094743;28;20728;-44
2021/03/14 04:26:15;;;;;;;1999.90;999.90;;;19.50;99.80;;;;;;5094906;28;20172;-51
2021/03/14 04:28:43;;;;;;;1999.90;999.90;;;19.40;99.90;;;;;;5095413;28;20168;-44
2021/03/14 04:31:11;;;;;;;1999.90;999.90;;;19.50;99.90;;;;;;5094826;28;20164;-45
2021/03/14 04:33:41;;;;;;;1999.90;999.90;;;19.50;99.90;;;;;;5094660;28;20196;-44
2021/03/14 04:36:10;;;;;;;1999.90;999.90;;;19.40;99.90;;;;;;5094725;28;20255;-59
2021/03/14 04:38:39;;;;;;;1999.90;999.90;;;19.40;99.90;;;;;;5094717;28;20247;-44
2021/03/14 04:41:07;;;;;;;1999.90;999.90;;;19.40;99.90;;;;;;5094653;28;20170;-43
2021/03/14 04:43:35;;;;;;;1999.90;999.90;;;19.30;99.90;;;;;;5094590;28;20175;-43
2021/03/14 04:46:02;;;;;;;1999.90;999.90;;;19.30;99.90;;;;;;5094483;28;20179;-57
2021/03/14 04:48:29;;;;;;;1999.90;999.90;;;19.30;99.90;;;;;;5094493;28;20618;-43
2021/03/14 04:50:56;;;;;;;1999.90;999.90;;;19.30;99.90;;;;;;5094431;28;20254;-59
2021/03/14 04:53:27;;;;;;;1999.90;999.90;;;19.30;99.90;;;;;;5094471;28;20235;-59
2021/03/14 04:55:56;;;;;;;1999.90;999.90;;;19.20;99.90;;;;;;5094540;28;20159;-43
2021/03/14 04:58:24;;;;;;;1999.90;999.90;;;19.20;99.90;;;;;;5094449;28;20160;-43
2021/03/14 05:00:52;;;;;;;1999.90;999.90;;;19.20;99.90;;;;;;5094452;28;20172;-43
2021/03/14 05:03:23;;;;;;;1999.90;999.90;;;19.10;99.90;;;;;;5094189;28;20172;-43
2021/03/14 05:05:52;;;;;;;1999.90;999.90;;;19.20;99.90;;;;;;5094221;28;20158;-43
2021/03/14 05:08:23;;;;;;;1999.90;999.90;;;19.20;99.90;;;;;;5094012;28;20164;-59
2021/03/14 05:10:54;;;;;;;1999.90;999.90;;;19.20;99.90;;;;;;5094207;28;20164;-43
2021/03/14 05:13:20;;;;;;;1999.90;999.90;;;19.20;99.90;;;;;;5093867;28;20282;-44
2021/03/14 05:15:57;;;;;;;1999.90;999.90;;;19.10;99.90;;;;;;5093983;28;20221;-58
2021/03/14 05:18:23;;;;;;;1999.90;999.90;;;19.20;99.80;;;;;;5093366;28;20177;-59
2021/03/14 05:20:51;;;;;;;1999.90;999.90;;;19.20;99.50;;;;;;5093880;28;20630;-44
2021/03/14 05:23:18;;;;;;;1999.90;999.90;;;19.20;99.30;;;;;;5093596;28;20221;-57
2021/03/14 05:25:45;;;;;;;1999.90;999.90;;;19.20;99.20;;;;;;5093796;28;20242;-54
2021/03/14 05:28:14;;;;;;;1999.90;999.90;;;19.20;99.20;;;;;;5093709;28;20228;-44
2021/03/14 05:30:43;;;;;;;1999.90;999.90;;;19.20;99.20;;;;;;5093684;28;20520;-43
2021/03/14 05:33:10;;;;;;;1999.90;999.90;;;19.20;99.10;;;;;;5093583;28;20216;-44
2021/03/14 05:35:37;;;;;;;1999.90;999.90;;;19.20;99.00;;;;;;5093527;28;20164;-43
2021/03/14 05:38:03;;;;;;;1999.90;999.90;;;19.10;98.90;;;;;;5093600;28;20254;-44
2021/03/14 05:40:30;;;;;;;1999.90;999.90;;;19.20;99.20;;;;;;5093519;28;20172;-43
2021/03/14 05:42:58;;;;;;;1999.90;999.90;;;19.20;99.10;;;;;;5093592;28;20171;-59
2021/03/14 05:45:26;;;;;;;1999.90;999.90;;;19.20;99.00;;;;;;5093534;28;20168;-43
2021/03/14 05:47:52;;;;;;;1999.90;999.90;;;19.20;99.10;;;;;;5093368;28;20207;-43
2021/03/14 05:50:22;;;;;;;1999.90;999.90;;;19.30;99.10;;;;;;5093374;28;20172;-47
2021/03/14 05:52:50;;;;;;;1999.90;999.90;;;19.30;98.90;;;;;;5093313;28;20560;-43
2021/03/14 05:55:23;;;;;;;1999.90;999.90;;;19.30;98.90;;;;;;5093287;28;20262;-43
2021/03/14 05:57:52;;;;;;;1999.90;999.90;;;19.30;99.20;;;;;;5093309;28;20190;-44
2021/03/14 06:00:28;;;;;;;1999.90;999.90;;;19.30;99.20;;;;;;5093207;28;20164;-44
2021/03/14 06:03:02;;;;;;;1999.90;999.90;;;19.30;99.20;;;;;;5093293;28;20224;-47
2021/03/14 06:05:30;;;;;;;1999.90;999.90;;;19.40;99.20;;;;;;5093610;28;20162;-44
2021/03/14 06:07:58;;;;;;;1999.90;999.90;;;19.60;98.90;;;;;;5093156;28;20516;-44
2021/03/14 06:10:26;;;;;;;1999.90;999.90;;;19.60;98.40;;;;;;5093172;28;20200;-45
2021/03/14 06:12:53;;;;;;;1999.90;999.90;;;19.60;98.40;;;;;;5093032;28;20227;-59
2021/03/14 06:15:20;;;;;;;1999.90;999.90;;;19.60;98.50;;;;;;5092990;28;20197;-43
2021/03/14 06:17:47;;;;;;;1999.90;999.90;;;19.80;98.10;;;;;;5092928;28;20188;-44
2021/03/14 06:20:36;;;;;;;1999.90;999.90;;;19.80;97.80;;;;;;5092992;28;20626;-44
2021/03/14 06:23:08;;;;;;;1999.90;999.90;;;19.90;97.50;;;;;;5092858;28;20239;-45
2021/03/14 06:25:36;;;;;;;1999.90;999.90;;;20.10;97.20;;;;;;5093214;28;20515;-43
2021/03/14 06:28:03;;;;;;;1999.90;999.90;;;20.10;97.40;;;;;;5092931;28;20225;-44
2021/03/14 06:30:34;;;;;;;1999.90;999.90;;;20.20;97.40;;;;;;5097022;28;20213;-44
2021/03/14 06:33:20;;;;;;;1999.90;999.90;;;20.20;97.30;;;;;;5097078;28;20188;-58
2021/03/14 06:35:53;;;;;;;1999.90;999.90;;;20.20;97.40;;;;;;5097023;28;20175;-44
2021/03/14 06:38:31;;;;;;;1999.90;999.90;;;20.30;97.30;;;;;;5097043;28;20222;-43
2021/03/14 06:41:07;;;;;;;1999.90;999.90;;;20.40;96.90;;;;;;5097016;28;20159;-43
2021/03/14 06:43:39;;;;;;;1999.90;999.90;;;20.40;96.90;;;;;;5097281;28;20492;-44
2021/03/14 06:46:27;;;;;;;1999.90;999.90;;;20.50;96.40;;;;;;5096839;28;20622;-43
2021/03/14 06:49:11;;;;;;;1999.90;999.90;;;20.20;95.70;;;;;;5096733;28;20167;-43
2021/03/14 06:51:46;;;;;;;1999.90;999.90;;;20.10;95.40;;;;;;5096862;28;20152;-43
2021/03/14 06:54:21;;;;;;;1999.90;999.90;;;20.20;95.20;;;;;;5096660;28;20563;-43
2021/03/14 06:57:23;;;;;;;1999.90;999.90;;;20.30;94.20;;;;;;5096620;28;20501;-43
2021/03/14 06:59:59;;;;;;;1999.90;999.90;;;20.40;93.60;;;;;;5096622;28;20176;-44
2021/03/14 07:02:32;;;;;;;1999.90;999.90;;;20.60;93.90;;;;;;5096571;28;20641;-43
2021/03/14 07:05:03;;;;;;;1999.90;999.90;;;20.70;93.10;;;;;;5096513;28;20168;-43
2021/03/14 07:07:33;;;;;;;1999.90;999.90;;;20.80;92.80;;;;;;5096490;28;20530;-44
2021/03/14 07:10:06;;;;;;;1999.90;999.90;;;21.10;92.30;;;;;;5096404;28;20289;-43
2021/03/14 07:12:35;;;;;;;1999.90;999.90;;;21.20;91.20;;;;;;5096467;28;20198;-43
2021/03/14 07:15:13;;;;;;;1999.90;999.90;;;21.50;91.80;;;;;;5096427;28;20163;-45
2021/03/14 07:17:42;;;;;;;1999.90;999.90;;;21.50;91.60;;;;;;5096194;28;20538;-45
2021/03/14 07:20:15;;;;;;;1999.90;999.90;;;21.50;91.90;;;;;;5096228;28;20629;-56
2021/03/14 07:22:56;;;;;;;1999.90;999.90;;;21.50;92.60;;;;;;5095855;28;20302;-44
2021/03/14 07:25:23;;;;;;;1999.90;999.90;;;21.70;91.80;;;;;;5096081;28;20263;-43
2021/03/14 07:27:51;;;;;;;1999.90;999.90;;;21.80;93.00;;;;;;5096057;28;20548;-43
2021/03/14 07:30:24;;;;;;;1999.90;999.90;;;22.00;93.20;;;;;;5095998;28;20168;-58
2021/03/14 07:32:52;;;;;;;1999.90;999.90;;;22.20;92.70;;;;;;5095818;28;20544;-55
2021/03/14 07:35:20;;;;;;;1999.90;999.90;;;22.40;91.60;;;;;;5095916;28;20176;-44
2021/03/14 07:37:52;;;;;;;1999.90;999.90;;;22.40;91.40;;;;;;5095794;28;20241;-47
2021/03/14 07:40:23;;;;;;;1999.90;999.90;;;22.40;91.30;;;;;;5095132;28;20161;-54
2021/03/14 07:42:56;;;;;;;1999.90;999.90;;;22.50;90.90;;;;;;5095680;28;20246;-46
2021/03/14 07:45:25;;;;;;;1999.90;999.90;;;22.50;89.80;;;;;;5095813;28;20549;-47
2021/03/14 07:47:52;;;;;;;1999.90;999.90;;;22.60;90.20;;;;;;5095543;28;20175;-58
2021/03/14 07:50:32;;;;;;;1999.90;999.90;;;22.60;90.20;;;;;;5095589;28;20206;-44
2021/03/14 07:53:13;;;;;;;1999.90;999.90;;;22.30;90.40;;;;;;5095439;28;20211;-45
2021/03/14 07:55:45;;;;;;;1999.90;999.90;;;22.20;90.60;;;;;;5095561;28;20229;-43
2021/03/14 07:58:13;;;;;;;1999.90;999.90;;;22.10;90.40;;;;;;5094164;28;20622;-58
2021/03/14 08:14:02;;;;;;;1999.90;999.90;;;22.10;86.20;;;;;;5110595;27;20595;-45
2021/03/14 08:16:29;;;;;;;1999.90;999.90;;;22.70;86.30;;;;;;5110597;28;20175;-45
2021/03/14 08:18:57;;;;;;;1999.90;999.90;;;23.00;84.20;;;;;;5110569;28;20225;-45
2021/03/14 08:21:30;;;;;;;1999.90;999.90;;;23.00;84.00;;;;;;5110400;28;20203;-45
2021/03/14 08:24:00;;;;;;;1999.90;999.90;;;22.70;85.80;;;;;;5110461;28;20178;-45
2021/03/14 08:26:29;;;;;;;1999.90;999.90;;;22.50;87.10;;;;;;5110398;28;20175;-60
2021/03/14 08:28:57;;;;;;;1999.90;999.90;;;22.50;88.00;;;;;;5110533;28;20183;-59
2021/03/14 08:31:43;;;;;;;1999.90;999.90;;;22.80;86.60;;;;;;5110356;28;20172;-46
2021/03/14 08:34:30;;;;;;;1999.90;999.90;;;23.00;86.30;;;;;;5109976;28;20159;-45
2021/03/14 08:36:58;;;;;;;1999.90;999.90;;;23.10;85.30;;;;;;5110550;28;20488;-45
2021/03/14 08:39:31;;;;;;;1999.90;999.90;;;23.20;85.40;;;;;;5110256;28;20171;-45
2021/03/14 08:42:05;;;;;;;1999.90;999.90;;;23.10;85.40;;;;;;5110102;28;20277;-46
2021/03/14 08:44:32;;;;;;;1999.90;999.90;;;23.10;84.70;;;;;;5110074;28;20167;-45
2021/03/14 08:47:11;;;;;;;1999.90;999.90;;;23.00;83.40;;;;;;5110005;28;20258;-45
2021/03/14 08:49:45;;;;;;;1999.90;999.90;;;23.00;81.50;;;;;;5109993;28;20163;-44
2021/03/14 08:52:13;;;;;;;1999.90;999.90;;;22.90;81.20;;;;;;5109869;28;20526;-48
2021/03/14 08:54:41;;;;;;;1999.90;999.90;;;22.80;81.50;;;;;;5109888;28;20167;-47
2021/03/14 08:57:18;;;;;;;1999.90;999.90;;;22.80;82.70;;;;;;5109820;28;20175;-45
2021/03/14 08:59:50;;;;;;;1999.90;999.90;;;22.80;81.20;;;;;;5109999;28;20178;-45
2021/03/14 09:02:25;;;;;;;1999.90;999.90;;;22.60;82.90;;;;;;5109931;28;20200;-44
2021/03/14 09:04:53;;;;;;;1999.90;999.90;;;22.60;82.70;;;;;;5109675;28;20513;-44
2021/03/14 09:07:21;;;;;;;1999.90;999.90;;;22.50;83.60;;;;;;5109683;28;20175;-44
2021/03/14 09:09:48;;;;;;;1999.90;999.90;;;22.40;84.20;;;;;;5109690;28;20534;-44
2021/03/14 09:12:19;;;;;;;1999.90;999.90;;;22.50;85.00;;;;;;5109525;28;20673;-45
2021/03/14 09:14:48;;;;;;;1999.90;999.90;;;22.60;84.20;;;;;;5096685;28;20180;-44
2021/03/14 09:17:20;;;;;;;1999.90;999.90;;;22.80;84.00;;;;;;5096134;28;20167;-44
2021/03/14 09:19:48;;;;;;;1999.90;999.90;;;22.80;83.50;;;;;;5094665;28;20168;-58
2021/03/14 09:22:18;;;;;;;1999.90;999.90;;;22.90;83.80;;;;;;5095998;28;20192;-44
2021/03/14 09:24:47;;;;;;;1999.90;999.90;;;23.00;82.70;;;;;;5096128;28;20198;-44
2021/03/14 09:27:17;;;;;;;1999.90;999.90;;;23.10;82.60;;;;;;5095654;28;20201;-44
2021/03/14 09:29:49;;;;;;;1999.90;999.90;;;23.10;82.80;;;;;;5095676;28;20174;-59
2021/03/14 09:32:29;;;;;;;1999.90;999.90;;;23.10;82.80;;;;;;5095644;28;20164;-47
2021/03/14 09:35:21;;;;;;;1999.90;999.90;;;23.10;83.20;;;;;;5095569;28;20171;-45
2021/03/14 09:38:01;;;;;;;1999.90;999.90;;;23.00;83.30;;;;;;5095707;28;20156;-49
2021/03/14 09:40:36;;;;;;;1999.90;999.90;;;22.90;83.90;;;;;;5095540;28;20179;-44
2021/03/14 09:43:12;;;;;;;1999.90;999.90;;;22.90;84.20;;;;;;5095417;28;20191;-45
2021/03/14 09:45:41;;;;;;;1999.90;999.90;;;22.90;84.20;;;;;;5095383;28;20197;-44
2021/03/14 09:48:14;;;;;;;1999.90;999.90;;;22.80;84.40;;;;;;5095230;28;20174;-44
2021/03/14 09:50:50;;;;;;;1999.90;999.90;;;22.80;83.30;;;;;;5095359;28;20156;-43
2021/03/14 09:53:18;;;;;;;1999.90;999.90;;;23.00;83.30;;;;;;5095206;28;20170;-44
2021/03/14 09:55:50;;;;;;;1999.90;999.90;;;23.20;81.90;;;;;;5095229;28;20164;-60
2021/03/14 09:58:19;;;;;;;1999.90;999.90;;;23.30;81.30;;;;;;5095155;28;20156;-44
2021/03/14 10:00:48;;;;;;;1999.90;999.90;;;23.20;81.00;;;;;;5095141;28;20630;-46
2021/03/14 10:03:17;;;;;;;1999.90;999.90;;;23.10;80.60;;;;;;5094956;28;20199;-43
2021/03/14 10:05:45;;;;;;;1999.90;999.90;;;23.10;80.50;;;;;;5095008;28;20172;-59
2021/03/14 10:08:26;;;;;;;1999.90;999.90;;;23.00;81.10;;;;;;5094943;28;20168;-45
2021/03/14 10:23:23;;;;;;;1999.90;999.90;;;22.90;80.40;;;;;;5110696;27;20598;-44
2021/03/14 10:25:51;;;;;;;1999.90;999.90;;;23.90;75.60;;;;;;5110824;28;20190;-44
2021/03/14 10:28:22;;;;;;;1999.90;999.90;;;24.00;75.20;;;;;;5110498;28;20163;-43
2021/03/14 10:31:00;;;;;;;1999.90;999.90;;;24.10;73.60;;;;;;5110331;28;20269;-43
2021/03/14 10:33:32;;;;;;;1999.90;999.90;;;24.10;74.30;;;;;;5110588;28;20162;-44
2021/03/14 10:36:05;;;;;;;1999.90;999.90;;;24.00;74.40;;;;;;5110314;28;20178;-44
2021/03/14 10:38:44;;;;;;;1999.90;999.90;;;23.80;74.80;;;;;;5110261;28;20232;-45
2021/03/14 10:41:16;;;;;;;1999.90;999.90;;;23.60;75.20;;;;;;5110043;28;20167;-44
2021/03/14 10:43:56;;;;;;;1999.90;999.90;;;23.50;76.10;;;;;;5110219;28;20592;-43
2021/03/14 10:46:38;;;;;;;1999.90;999.90;;;23.40;75.60;;;;;;5110002;28;20167;-44
2021/03/14 10:49:18;;;;;;;1999.90;999.90;;;23.40;76.00;;;;;;5110089;28;20191;-45
2021/03/14 10:51:50;;;;;;;1999.90;999.90;;;23.30;75.40;;;;;;5109833;28;20556;-44
2021/03/14 10:54:18;;;;;;;1999.90;999.90;;;23.30;75.10;;;;;;5109923;28;20156;-45
2021/03/14 10:56:47;;;;;;;1999.90;999.90;;;23.30;75.10;;;;;;5109902;28;20606;-44
2021/03/14 10:59:33;;;;;;;1999.90;999.90;;;23.20;75.70;;;;;;5109916;28;20174;-56
2021/03/14 11:02:14;;;;;;;1999.90;999.90;;;23.30;76.30;;;;;;5109913;28;20509;-45
2021/03/14 11:04:41;;;;;;;1999.90;999.90;;;23.20;76.20;;;;;;5109781;28;20198;-43
2021/03/14 11:07:34;;;;;;;1999.90;999.90;;;23.20;76.40;;;;;;5110045;28;20515;-45
2021/03/14 11:10:13;;;;;;;1999.90;999.90;;;23.30;75.50;;;;;;5109633;28;20266;-44
2021/03/14 11:12:42;;;;;;;1999.90;999.90;;;23.20;76.80;;;;;;5109412;28;20202;-44
2021/03/14 11:15:26;;;;;;;1999.90;999.90;;;23.20;77.20;;;;;;5109307;28;20175;-44
2021/03/14 11:17:53;;;;;;;1999.90;999.90;;;23.10;76.30;;;;;;5109567;28;20625;-44
2021/03/14 11:20:22;;;;;;;1999.90;999.90;;;23.00;76.60;;;;;;5109337;28;20236;-58
2021/03/14 11:22:54;;;;;;;1999.90;999.90;;;23.00;77.00;;;;;;5103304;28;20261;-49
2021/03/14 11:25:21;;;;;;;1999.90;999.90;;;23.00;77.60;;;;;;5095868;28;20160;-43
2021/03/14 11:27:51;;;;;;;1999.90;999.90;;;22.80;78.70;;;;;;5095646;28;20191;-45
2021/03/14 11:30:23;;;;;;;1999.90;999.90;;;22.90;78.40;;;;;;5095737;28;20178;-44
2021/03/14 11:32:50;;;;;;;1999.90;999.90;;;23.00;79.20;;;;;;5095742;28;20175;-43
2021/03/14 11:35:17;;;;;;;1999.90;999.90;;;22.90;80.30;;;;;;5095657;28;20191;-43
2021/03/14 11:37:44;;;;;;;1999.90;999.90;;;22.80;81.80;;;;;;5095678;28;20168;-44
2021/03/14 11:40:12;;;;;;;1999.90;999.90;;;22.80;80.90;;;;;;5095565;28;20160;-44
2021/03/14 11:42:39;;;;;;;1999.90;999.90;;;22.70;80.80;;;;;;5095431;28;20163;-43
2021/03/14 11:45:07;;;;;;;1999.90;999.90;;;22.80;80.60;;;;;;5095281;28;20557;-45
2021/03/14 11:47:35;;;;;;;1999.90;999.90;;;22.80;80.70;;;;;;5095337;28;20183;-49
2021/03/14 11:50:03;;;;;;;1999.90;999.90;;;22.90;80.40;;;;;;5094944;28;20538;-44
2021/03/14 11:52:30;;;;;;;1999.90;999.90;;;23.00;79.80;;;;;;5095015;28;20191;-45
2021/03/14 11:54:57;;;;;;;1999.90;999.90;;;23.00;79.90;;;;;;5095027;28;20537;-45
2021/03/14 11:57:24;;;;;;;1999.90;999.90;;;23.00;80.30;;;;;;5095018;28;20175;-46
2021/03/14 11:59:51;;;;;;;1999.90;999.90;;;23.00;79.90;;;;;;5095124;28;20168;-44
2021/03/14 12:02:18;;;;;;;1999.90;999.90;;;23.10;80.60;;;;;;5095035;28;20187;-44
2021/03/14 12:04:45;;;;;;;1999.90;999.90;;;23.00;79.80;;;;;;5094951;28;20167;-45
2021/03/14 12:07:12;;;;;;;1999.90;999.90;;;22.90;80.20;;;;;;5094803;28;20180;-45
2021/03/14 12:09:39;;;;;;;1999.90;999.90;;;22.90;80.60;;;;;;5094935;28;20168;-49
2021/03/14 12:12:06;;;;;;;1999.90;999.90;;;22.90;80.70;;;;;;5094780;28;20196;-45
2021/03/14 12:14:33;;;;;;;1999.90;999.90;;;22.90;81.40;;;;;;5095012;28;20172;-46
2021/03/14 12:17:00;;;;;;;1999.90;999.90;;;22.90;81.80;;;;;;5094987;28;20633;-47
2021/03/14 12:19:27;;;;;;;1999.90;999.90;;;23.00;81.90;;;;;;5095132;28;20199;-47
2021/03/14 12:21:54;;;;;;;1999.90;999.90;;;23.10;81.90;;;;;;5094669;28;20204;-57
2021/03/14 12:24:21;;;;;;;1999.90;999.90;;;23.20;81.50;;;;;;5094760;28;20172;-44
2021/03/14 12:26:47;;;;;;;1999.90;999.90;;;23.30;80.50;;;;;;5094800;28;20160;-44
2021/03/14 12:29:14;;;;;;;1999.90;999.90;;;23.50;79.50;;;;;;5094551;28;20168;-45
2021/03/14 12:31:41;;;;;;;1999.90;999.90;;;23.40;78.70;;;;;;5094520;28;20291;-44
2021/03/14 12:34:08;;;;;;;1999.90;999.90;;;23.20;79.30;;;;;;5093832;28;20582;-51
2021/03/14 12:36:35;;;;;;;1999.90;999.90;;;23.10;79.90;;;;;;5094327;28;20213;-48
2021/03/14 12:39:02;;;;;;;1999.90;999.90;;;22.90;80.70;;;;;;5094267;28;20164;-54